Terminal Aerodrome Forecast
Issued by NWS Duluth, MN

Home | Current Version | Previous Version | Text Only | Print | Product List | Glossary On
Versions: 1 2 3 4 5 6 7 8 9 10 11 12 13 14 15 16 17
930
FTUS43 KDLH 202104 AAB
TAFDLH
TAF AMD
KDLH 202104Z 2021/2118 29010KT P6SM VCSH OVC050
     FM210200 30011KT P6SM SCT040
     FM210800 29009KT P6SM FEW200=

USA.gov is the U.S. government's official web portal to all federal, state and local government web resources and services.